Artemis — SWZE — position and weather

sailwx.info

Track history (hours):
 
Tides and Currents Weather Stations Pressure Air Temp Water Temp Dewpoint Dewpoint Depression Visibility Wind Speed Wind Dir Waves Ship Positions

Artemis

Last reported at 2015-Apr-20 00:33 UTC. Time now 2015-Apr-20 00:48 UTC.
Position N 37°26' E 024°56'.

Length 89 m.

MMSI: 237026300.

Date/timePositionNaut miles runAvg speedWind from/ knotsBaromVisibWave heightAir tempDewpointWater temp
2015-Apr-20 00:33N 37°26' E 024°56'0 0.0
2015-Apr-19 23:31N 37°26' E 024°56'0 0.0
2015-Apr-19 22:32N 37°26' E 024°56'0 0.0
2015-Apr-19 21:33N 37°26' E 024°56'0 0.0
2015-Apr-19 20:33N 37°26' E 024°56'0 0.0
2015-Apr-19 19:32N 37°26' E 024°56'8 8.3
2015-Apr-19 18:33N 37°19' E 025°01'1514.5
2015-Apr-19 17:32N 37°05' E 025°08'9 9.7
2015-Apr-19 16:33N 37°06' E 024°56'12 1.3
2015-Apr-19 07:29N 37°07' E 024°41'1414.5
2015-Apr-19 06:33N 37°06' E 024°58'7 7.0
2015-Apr-19 05:33N 37°07' E 025°07'1414.5
2015-Apr-19 04:34N 37°21' E 025°00'6 6.1
2015-Apr-19 03:30N 37°27' E 024°57'0 0.0
2015-Apr-19 02:33N 37°27' E 024°57'0 0.0
2015-Apr-19 01:33N 37°27' E 024°57'0 0.0
2015-Apr-19 00:33N 37°27' E 024°57'0 0.0
2015-Apr-18 23:30N 37°27' E 024°57'0 0.0
2015-Apr-18 22:33N 37°27' E 024°57'0 0.0
2015-Apr-18 21:33N 37°27' E 024°57'0 0.0
2015-Apr-18 20:26N 37°27' E 024°57'0 0.0
2015-Apr-18 19:32N 37°27' E 024°57'0 0.0
2015-Apr-18 18:33N 37°27' E 024°57'0 0.0
2015-Apr-18 17:33N 37°27' E 024°57'0 0.0
2015-Apr-18 16:33N 37°27' E 024°57'0 0.0
2015-Apr-18 15:32N 37°27' E 024°57'0 0.0
2015-Apr-18 14:32N 37°27' E 024°57'3 3.1
2015-Apr-18 13:29N 37°24' E 024°59'1414.9
2015-Apr-18 12:32N 37°10' E 025°05'5 4.8
2015-Apr-18 11:33N 37°08' E 025°10'10 9.4
2015-Apr-18 10:32N 37°06' E 025°22'1313.1
2015-Apr-18 09:32N 36°55' E 025°15'20 9.5
2015-Apr-18 07:29N 36°37' E 025°04'27 1.5
2015-Apr-17 13:27N 37°02' E 025°18'6 6.3
2015-Apr-17 12:33N 37°08' E 025°20'9 8.5
2015-Apr-17 11:27N 37°05' E 025°09'1513.3
2015-Apr-17 10:18N 37°19' E 025°01'810.6
2015-Apr-17 09:32N 37°26' E 024°56'2 0.1
2015-Apr-16 10:06N 37°29' E 024°57'2 4.3
2015-Apr-16 09:33N 37°26' E 024°56'9 8.8
2015-Apr-16 08:33N 37°19' E 024°51'1 0.0
2015-Apr-15 12:33N 37°19' E 024°51'9 9.1
2015-Apr-15 11:32N 37°27' E 024°57'0 0.0
2015-Apr-15 10:32N 37°27' E 024°57'5 4.5
2015-Apr-15 09:30N 37°29' E 025°02'6 6.0
2015-Apr-15 08:33N 37°34' E 025°04'5 1.6
2015-Apr-15 05:15N 37°38' E 024°59'1014.0
2015-Apr-15 04:32N 37°32' E 025°09'1211.8
2015-Apr-15 03:33N 37°26' E 024°57'0 0.1
2015-Apr-15 02:33N 37°27' E 024°57'0 0.0
2015-Apr-15 01:33N 37°27' E 024°57'0 0.0
2015-Apr-15 00:32N 37°27' E 024°57'0 0.0
2015-Apr-14 23:33N 37°27' E 024°57'0 0.0
2015-Apr-14 22:33N 37°27' E 024°57'0 0.0
2015-Apr-14 21:29N 37°27' E 024°57'0 0.0
2015-Apr-14 20:28N 37°27' E 024°57'0 0.0
2015-Apr-14 19:33N 37°27' E 024°57'0 0.0
2015-Apr-14 18:30N 37°27' E 024°57'1313.2
2015-Apr-14 17:30N 37°15' E 025°04'9 9.2
2015-Apr-14 16:29N 37°06' E 025°07'1514.3
2015-Apr-14 15:24N 37°07' E 024°48'6 0.7
2015-Apr-14 07:33N 37°07' E 024°41'1414.4
2015-Apr-14 06:34N 37°06' E 024°59'8 5.8
2015-Apr-14 05:09N 37°13' E 025°04'914.5
2015-Apr-14 04:33N 37°21' E 025°00'6 5.7
2015-Apr-14 03:30N 37°27' E 024°57'0 0.0
2015-Apr-14 02:22N 37°27' E 024°57'0 0.0
2015-Apr-14 01:30N 37°27' E 024°57'0 0.0
2015-Apr-14 00:33N 37°27' E 024°57'0 0.0
2015-Apr-13 23:32N 37°27' E 024°57'0 0.0
2015-Apr-13 22:32N 37°27' E 024°57'0 0.0
2015-Apr-13 21:33N 37°27' E 024°57'0 0.0
2015-Apr-13 20:32N 37°27' E 024°57'0 0.0
2015-Apr-13 19:31N 37°27' E 024°57'9 9.0
2015-Apr-13 18:33N 37°31' E 024°47'8 0.6
2015-Apr-13 04:24N 37°29' E 024°57'3 3.2
2015-Apr-13 03:31N 37°27' E 024°57'0 0.0
2015-Apr-13 02:29N 37°27' E 024°57'0 0.0
2015-Apr-13 01:20N 37°27' E 024°57'0 0.0
2015-Apr-13 00:34N 37°27' E 024°57'0 0.0
2015-Apr-12 23:33N 37°27' E 024°57'0 0.0
2015-Apr-12 22:27N 37°27' E 024°57'0 0.0
2015-Apr-12 21:33N 37°27' E 024°57'0 0.0
2015-Apr-12 20:32N 37°27' E 024°57'0 0.0
2015-Apr-12 19:22N 37°27' E 024°57'0 0.0
2015-Apr-12 18:31N 37°27' E 024°57'0 0.0
2015-Apr-12 17:31N 37°27' E 024°57'0 0.0
2015-Apr-12 16:33N 37°27' E 024°57'0 0.0
2015-Apr-12 15:32N 37°27' E 024°57'0 0.0
2015-Apr-12 14:33N 37°27' E 024°57'0 0.0
2015-Apr-12 13:32N 37°27' E 024°57'0 0.0
2015-Apr-12 12:23N 37°27' E 024°57'0 0.0
2015-Apr-12 11:32N 37°27' E 024°57'0 0.0
2015-Apr-12 10:33N 37°27' E 024°57'0 0.0
2015-Apr-12 09:31N 37°27' E 024°57'0 0.0
2015-Apr-12 08:32N 37°27' E 024°57'0 0.0
2015-Apr-12 07:33N 37°27' E 024°57'0 0.0
2015-Apr-12 06:33N 37°27' E 024°57'0 0.0
2015-Apr-12 05:32N 37°27' E 024°57'0 0.0
2015-Apr-12 04:24N 37°27' E 024°57'0 0.0
2015-Apr-12 03:30N 37°27' E 024°57'0 0.0
2015-Apr-12 02:26N 37°27' E 024°57'0 0.0
2015-Apr-12 01:32N 37°27' E 024°57'0 0.0
2015-Apr-12 00:29N 37°27' E 024°57'0 0.0
2015-Apr-11 23:31N 37°27' E 024°57'0 0.0
2015-Apr-11 22:32N 37°27' E 024°57'0 0.0
2015-Apr-11 21:24N 37°27' E 024°57'0 0.0
2015-Apr-11 20:25N 37°27' E 024°57'0 0.0
2015-Apr-11 19:27N 37°27' E 024°57'0 0.0
2015-Apr-11 18:33N 37°27' E 024°57'0 0.0
2015-Apr-11 17:34N 37°27' E 024°57'0 0.0
2015-Apr-11 16:31N 37°27' E 024°57'0 0.0
2015-Apr-11 15:25N 37°27' E 024°57'0 0.2
2015-Apr-11 14:32N 37°26' E 024°57'1514.0
2015-Apr-11 13:28N 37°13' E 025°04'7 6.3
2015-Apr-11 12:25N 37°07' E 025°09'910.5
2015-Apr-11 11:33N 37°09' E 025°20'9 9.0
2015-Apr-11 10:33N 36°60' E 025°17'2110.3
2015-Apr-11 08:33N 36°40' E 025°09'10 9.9
2015-Apr-11 07:33N 36°37' E 024°57'72 7.9
2015-Apr-10 22:22N 37°38' E 024°08'  
Track history (hours):
 
Tides and Currents Weather Stations Pressure Air Temp Water Temp Dewpoint Dewpoint Depression Visibility Wind Speed Wind Dir Waves Ship Positions

Artemis

Last reported at 2015-Apr-20 00:33 UTC. Time now 2015-Apr-20 00:48 UTC.
Position N 37°26' E 024°56'.

Length 89 m.

MMSI: 237026300.

Date/timePositionNaut miles runAvg speedWind from/ knotsBaromVisibWave heightAir tempDewpointWater temp
2015-Apr-20 00:33N 37°26' E 024°56'0 0.0
2015-Apr-19 23:31N 37°26' E 024°56'0 0.0
2015-Apr-19 22:32N 37°26' E 024°56'0 0.0
2015-Apr-19 21:33N 37°26' E 024°56'0 0.0
2015-Apr-19 20:33N 37°26' E 024°56'0 0.0
2015-Apr-19 19:32N 37°26' E 024°56'8 8.3
2015-Apr-19 18:33N 37°19' E 025°01'1514.5
2015-Apr-19 17:32N 37°05' E 025°08'9 9.7
2015-Apr-19 16:33N 37°06' E 024°56'12 1.3
2015-Apr-19 07:29N 37°07' E 024°41'1414.5
2015-Apr-19 06:33N 37°06' E 024°58'7 7.0
2015-Apr-19 05:33N 37°07' E 025°07'1414.5
2015-Apr-19 04:34N 37°21' E 025°00'6 6.1
2015-Apr-19 03:30N 37°27' E 024°57'0 0.0
2015-Apr-19 02:33N 37°27' E 024°57'0 0.0
2015-Apr-19 01:33N 37°27' E 024°57'0 0.0
2015-Apr-19 00:33N 37°27' E 024°57'0 0.0
2015-Apr-18 23:30N 37°27' E 024°57'0 0.0
2015-Apr-18 22:33N 37°27' E 024°57'0 0.0
2015-Apr-18 21:33N 37°27' E 024°57'0 0.0
2015-Apr-18 20:26N 37°27' E 024°57'0 0.0
2015-Apr-18 19:32N 37°27' E 024°57'0 0.0
2015-Apr-18 18:33N 37°27' E 024°57'0 0.0
2015-Apr-18 17:33N 37°27' E 024°57'0 0.0
2015-Apr-18 16:33N 37°27' E 024°57'0 0.0
2015-Apr-18 15:32N 37°27' E 024°57'0 0.0
2015-Apr-18 14:32N 37°27' E 024°57'3 3.1
2015-Apr-18 13:29N 37°24' E 024°59'1414.9
2015-Apr-18 12:32N 37°10' E 025°05'5 4.8
2015-Apr-18 11:33N 37°08' E 025°10'10 9.4
2015-Apr-18 10:32N 37°06' E 025°22'1313.1
2015-Apr-18 09:32N 36°55' E 025°15'20 9.5
2015-Apr-18 07:29N 36°37' E 025°04'27 1.5
2015-Apr-17 13:27N 37°02' E 025°18'6 6.3
2015-Apr-17 12:33N 37°08' E 025°20'9 8.5
2015-Apr-17 11:27N 37°05' E 025°09'1513.3
2015-Apr-17 10:18N 37°19' E 025°01'810.6
2015-Apr-17 09:32N 37°26' E 024°56'2 0.1
2015-Apr-16 10:06N 37°29' E 024°57'2 4.3
2015-Apr-16 09:33N 37°26' E 024°56'9 8.8
2015-Apr-16 08:33N 37°19' E 024°51'1 0.0
2015-Apr-15 12:33N 37°19' E 024°51'9 9.1
2015-Apr-15 11:32N 37°27' E 024°57'0 0.0
2015-Apr-15 10:32N 37°27' E 024°57'5 4.5
2015-Apr-15 09:30N 37°29' E 025°02'6 6.0
2015-Apr-15 08:33N 37°34' E 025°04'5 1.6
2015-Apr-15 05:15N 37°38' E 024°59'1014.0
2015-Apr-15 04:32N 37°32' E 025°09'1211.8
2015-Apr-15 03:33N 37°26' E 024°57'0 0.1
2015-Apr-15 02:33N 37°27' E 024°57'0 0.0
2015-Apr-15 01:33N 37°27' E 024°57'0 0.0
2015-Apr-15 00:32N 37°27' E 024°57'0 0.0
2015-Apr-14 23:33N 37°27' E 024°57'0 0.0
2015-Apr-14 22:33N 37°27' E 024°57'0 0.0
2015-Apr-14 21:29N 37°27' E 024°57'0 0.0
2015-Apr-14 20:28N 37°27' E 024°57'0 0.0
2015-Apr-14 19:33N 37°27' E 024°57'0 0.0
2015-Apr-14 18:30N 37°27' E 024°57'1313.2
2015-Apr-14 17:30N 37°15' E 025°04'9 9.2
2015-Apr-14 16:29N 37°06' E 025°07'1514.3
2015-Apr-14 15:24N 37°07' E 024°48'6 0.7
2015-Apr-14 07:33N 37°07' E 024°41'1414.4
2015-Apr-14 06:34N 37°06' E 024°59'8 5.8
2015-Apr-14 05:09N 37°13' E 025°04'914.5
2015-Apr-14 04:33N 37°21' E 025°00'6 5.7
2015-Apr-14 03:30N 37°27' E 024°57'0 0.0
2015-Apr-14 02:22N 37°27' E 024°57'0 0.0
2015-Apr-14 01:30N 37°27' E 024°57'0 0.0
2015-Apr-14 00:33N 37°27' E 024°57'0 0.0
2015-Apr-13 23:32N 37°27' E 024°57'0 0.0
2015-Apr-13 22:32N 37°27' E 024°57'0 0.0
2015-Apr-13 21:33N 37°27' E 024°57'0 0.0
2015-Apr-13 20:32N 37°27' E 024°57'0 0.0
2015-Apr-13 19:31N 37°27' E 024°57'9 9.0
2015-Apr-13 18:33N 37°31' E 024°47'8 0.6
2015-Apr-13 04:24N 37°29' E 024°57'3 3.2
2015-Apr-13 03:31N 37°27' E 024°57'0 0.0
2015-Apr-13 02:29N 37°27' E 024°57'0 0.0
2015-Apr-13 01:20N 37°27' E 024°57'0 0.0
2015-Apr-13 00:34N 37°27' E 024°57'0 0.0
2015-Apr-12 23:33N 37°27' E 024°57'0 0.0
2015-Apr-12 22:27N 37°27' E 024°57'0 0.0
2015-Apr-12 21:33N 37°27' E 024°57'0 0.0
2015-Apr-12 20:32N 37°27' E 024°57'0 0.0
2015-Apr-12 19:22N 37°27' E 024°57'0 0.0
2015-Apr-12 18:31N 37°27' E 024°57'0 0.0
2015-Apr-12 17:31N 37°27' E 024°57'0 0.0
2015-Apr-12 16:33N 37°27' E 024°57'0 0.0
2015-Apr-12 15:32N 37°27' E 024°57'0 0.0
2015-Apr-12 14:33N 37°27' E 024°57'0 0.0
2015-Apr-12 13:32N 37°27' E 024°57'0 0.0
2015-Apr-12 12:23N 37°27' E 024°57'0 0.0
2015-Apr-12 11:32N 37°27' E 024°57'0 0.0
2015-Apr-12 10:33N 37°27' E 024°57'0 0.0
2015-Apr-12 09:31N 37°27' E 024°57'0 0.0
2015-Apr-12 08:32N 37°27' E 024°57'0 0.0
2015-Apr-12 07:33N 37°27' E 024°57'0 0.0
2015-Apr-12 06:33N 37°27' E 024°57'0 0.0
2015-Apr-12 05:32N 37°27' E 024°57'0 0.0
2015-Apr-12 04:24N 37°27' E 024°57'0 0.0
2015-Apr-12 03:30N 37°27' E 024°57'0 0.0
2015-Apr-12 02:26N 37°27' E 024°57'0 0.0
2015-Apr-12 01:32N 37°27' E 024°57'0 0.0
2015-Apr-12 00:29N 37°27' E 024°57'0 0.0
2015-Apr-11 23:31N 37°27' E 024°57'0 0.0
2015-Apr-11 22:32N 37°27' E 024°57'0 0.0
2015-Apr-11 21:24N 37°27' E 024°57'0 0.0
2015-Apr-11 20:25N 37°27' E 024°57'0 0.0
2015-Apr-11 19:27N 37°27' E 024°57'0 0.0
2015-Apr-11 18:33N 37°27' E 024°57'0 0.0
2015-Apr-11 17:34N 37°27' E 024°57'0 0.0
2015-Apr-11 16:31N 37°27' E 024°57'0 0.0
2015-Apr-11 15:25N 37°27' E 024°57'0 0.2
2015-Apr-11 14:32N 37°26' E 024°57'1514.0
2015-Apr-11 13:28N 37°13' E 025°04'7 6.3
2015-Apr-11 12:25N 37°07' E 025°09'910.5
2015-Apr-11 11:33N 37°09' E 025°20'9 9.0
2015-Apr-11 10:33N 36°60' E 025°17'2110.3
2015-Apr-11 08:33N 36°40' E 025°09'10 9.9
2015-Apr-11 07:33N 36°37' E 024°57'72 7.9
2015-Apr-10 22:22N 37°38' E 024°08'  

Dump ship's entire track history